sensor_id;sensor_type;location;lat;lon;timestamp;pressure;altitude;pressure_sealevel;temperature;humidity
56582;BME280;42463;52.214;21.238;2022-12-07T00:01:12;99652.91;;;3.59;73.05
56582;BME280;42463;52.214;21.238;2022-12-07T00:03:38;99655.92;;;3.62;72.96
56582;BME280;42463;52.214;21.238;2022-12-07T00:06:05;99651.30;;;3.59;72.76
56582;BME280;42463;52.214;21.238;2022-12-07T00:08:30;99650.85;;;3.58;72.77
56582;BME280;42463;52.214;21.238;2022-12-07T00:10:58;99647.58;;;3.62;73.16
56582;BME280;42463;52.214;21.238;2022-12-07T00:13:25;99648.36;;;3.63;72.94
56582;BME280;42463;52.214;21.238;2022-12-07T00:15:51;99641.27;;;3.65;73.10
56582;BME280;42463;52.214;21.238;2022-12-07T00:18:15;99637.54;;;3.64;72.63
56582;BME280;42463;52.214;21.238;2022-12-07T00:20:41;99636.02;;;3.65;72.72
56582;BME280;42463;52.214;21.238;2022-12-07T00:23:06;99636.80;;;3.60;72.23
56582;BME280;42463;52.214;21.238;2022-12-07T00:25:32;99635.31;;;3.51;72.40
56582;BME280;42463;52.214;21.238;2022-12-07T00:27:57;99638.52;;;3.52;73.16
56582;BME280;42463;52.214;21.238;2022-12-07T00:30:22;99638.36;;;3.55;72.96
56582;BME280;42463;52.214;21.238;2022-12-07T00:32:49;99634.76;;;3.50;72.85
56582;BME280;42463;52.214;21.238;2022-12-07T00:35:14;99633.15;;;3.50;73.20
56582;BME280;42463;52.214;21.238;2022-12-07T00:37:39;99631.85;;;3.54;73.39
56582;BME280;42463;52.214;21.238;2022-12-07T00:40:07;99635.92;;;3.55;73.06
56582;BME280;42463;52.214;21.238;2022-12-07T00:42:32;99633.70;;;3.58;73.13
56582;BME280;42463;52.214;21.238;2022-12-07T00:44:57;99633.88;;;3.63;73.34
56582;BME280;42463;52.214;21.238;2022-12-07T00:47:23;99627.73;;;3.70;73.51
56582;BME280;42463;52.214;21.238;2022-12-07T00:49:52;99627.52;;;3.78;73.44
56582;BME280;42463;52.214;21.238;2022-12-07T00:52:17;99626.31;;;3.83;72.71
56582;BME280;42463;52.214;21.238;2022-12-07T00:54:42;99626.68;;;3.86;72.50
56582;BME280;42463;52.214;21.238;2022-12-07T00:57:08;99627.13;;;3.84;72.34
56582;BME280;42463;52.214;21.238;2022-12-07T00:59:33;99628.59;;;3.85;72.61
56582;BME280;42463;52.214;21.238;2022-12-07T01:01:58;99632.10;;;3.88;72.34
56582;BME280;42463;52.214;21.238;2022-12-07T01:04:23;99634.09;;;3.90;72.53
56582;BME280;42463;52.214;21.238;2022-12-07T01:06:48;99633.75;;;3.96;72.64
56582;BME280;42463;52.214;21.238;2022-12-07T01:09:14;99638.39;;;3.99;72.33
56582;BME280;42463;52.214;21.238;2022-12-07T01:11:39;99629.73;;;4.01;72.27
56582;BME280;42463;52.214;21.238;2022-12-07T01:14:04;99627.13;;;4.00;71.81
56582;BME280;42463;52.214;21.238;2022-12-07T01:16:31;99622.52;;;3.95;71.90
56582;BME280;42463;52.214;21.238;2022-12-07T01:18:58;99624.42;;;3.90;71.78
56582;BME280;42463;52.214;21.238;2022-12-07T01:21:24;99621.94;;;3.83;71.72
56582;BME280;42463;52.214;21.238;2022-12-07T01:23:50;99623.47;;;3.77;72.18
56582;BME280;42463;52.214;21.238;2022-12-07T01:26:18;99620.21;;;3.74;72.31
56582;BME280;42463;52.214;21.238;2022-12-07T01:28:43;99618.82;;;3.76;72.42
56582;BME280;42463;52.214;21.238;2022-12-07T01:31:09;99617.64;;;3.78;72.56
56582;BME280;42463;52.214;21.238;2022-12-07T01:33:37;99619.45;;;3.78;72.18
56582;BME280;42463;52.214;21.238;2022-12-07T01:36:07;99617.97;;;3.72;72.27
56582;BME280;42463;52.214;21.238;2022-12-07T01:38:33;99618.96;;;3.69;72.81
56582;BME280;42463;52.214;21.238;2022-12-07T01:40:58;99613.91;;;3.65;72.73
56582;BME280;42463;52.214;21.238;2022-12-07T01:43:25;99609.73;;;3.61;72.81
56582;BME280;42463;52.214;21.238;2022-12-07T01:45:50;99615.86;;;3.58;72.96
56582;BME280;42463;52.214;21.238;2022-12-07T01:48:18;99607.08;;;3.58;73.38
56582;BME280;42463;52.214;21.238;2022-12-07T01:50:47;99607.24;;;3.58;73.39
56582;BME280;42463;52.214;21.238;2022-12-07T01:53:14;99609.64;;;3.55;73.43
56582;BME280;42463;52.214;21.238;2022-12-07T01:55:42;99604.05;;;3.53;73.46
56582;BME280;42463;52.214;21.238;2022-12-07T01:58:09;99603.60;;;3.50;73.73
56582;BME280;42463;52.214;21.238;2022-12-07T02:04:12;99594.22;;;3.52;74.23
56582;BME280;42463;52.214;21.238;2022-12-07T02:06:38;99587.27;;;3.50;74.26
56582;BME280;42463;52.214;21.238;2022-12-07T02:09:04;99586.79;;;3.47;74.16
56582;BME280;42463;52.214;21.238;2022-12-07T02:11:32;99585.91;;;3.42;74.38
56582;BME280;42463;52.214;21.238;2022-12-07T02:13:57;99586.36;;;3.39;74.64
56582;BME280;42463;52.214;21.238;2022-12-07T02:16:31;99588.44;;;3.38;74.70
56582;BME280;42463;52.214;21.238;2022-12-07T02:19:04;99588.44;;;3.38;75.01
56582;BME280;42463;52.214;21.238;2022-12-07T02:21:42;99587.27;;;3.41;75.24
56582;BME280;42463;52.214;21.238;2022-12-07T02:24:24;99580.30;;;3.41;75.20
56582;BME280;42463;52.214;21.238;2022-12-07T02:27:13;99580.27;;;3.44;75.41
56582;BME280;42463;52.214;21.238;2022-12-07T02:29:49;99582.91;;;3.46;75.40
56582;BME280;42463;52.214;21.238;2022-12-07T02:32:19;99582.91;;;3.46;75.03
56582;BME280;42463;52.214;21.238;2022-12-07T02:34:51;99576.98;;;3.45;75.25
56582;BME280;42463;52.214;21.238;2022-12-07T02:37:29;99576.66;;;3.45;75.52
56582;BME280;42463;52.214;21.238;2022-12-07T02:40:01;99571.83;;;3.43;75.47
56582;BME280;42463;52.214;21.238;2022-12-07T02:42:34;99571.23;;;3.41;75.69
56582;BME280;42463;52.214;21.238;2022-12-07T02:45:02;99572.54;;;3.39;75.88
56582;BME280;42463;52.214;21.238;2022-12-07T02:47:30;99575.76;;;3.39;76.14
56582;BME280;42463;52.214;21.238;2022-12-07T02:49:57;99577.64;;;3.40;76.13
56582;BME280;42463;52.214;21.238;2022-12-07T02:52:22;99573.31;;;3.40;76.25
56582;BME280;42463;52.214;21.238;2022-12-07T02:54:47;99569.86;;;3.39;76.44
56582;BME280;42463;52.214;21.238;2022-12-07T02:57:25;99570.16;;;3.38;76.46
56582;BME280;42463;52.214;21.238;2022-12-07T03:00:05;99566.66;;;3.38;76.44
56582;BME280;42463;52.214;21.238;2022-12-07T03:02:38;99568.08;;;3.43;76.77
56582;BME280;42463;52.214;21.238;2022-12-07T03:05:17;99563.35;;;3.46;76.62
56582;BME280;42463;52.214;21.238;2022-12-07T03:07:55;99560.05;;;3.52;76.58
56582;BME280;42463;52.214;21.238;2022-12-07T03:10:32;99558.77;;;3.55;76.45
56582;BME280;42463;52.214;21.238;2022-12-07T03:13:04;99557.82;;;3.53;76.33
56582;BME280;42463;52.214;21.238;2022-12-07T03:15:34;99557.82;;;3.52;76.45
56582;BME280;42463;52.214;21.238;2022-12-07T03:18:02;99555.59;;;3.47;76.92
56582;BME280;42463;52.214;21.238;2022-12-07T03:20:30;99560.77;;;3.44;76.73
56582;BME280;42463;52.214;21.238;2022-12-07T03:22:58;99557.33;;;3.42;76.90
56582;BME280;42463;52.214;21.238;2022-12-07T03:25:23;99547.26;;;3.36;77.11
56582;BME280;42463;52.214;21.238;2022-12-07T03:27:53;99560.08;;;3.42;76.76
56582;BME280;42463;52.214;21.238;2022-12-07T03:30:20;99558.67;;;3.40;76.79
56582;BME280;42463;52.214;21.238;2022-12-07T03:32:50;99551.09;;;3.35;76.78
56582;BME280;42463;52.214;21.238;2022-12-07T03:35:19;99553.24;;;3.33;77.08
56582;BME280;42463;52.214;21.238;2022-12-07T03:37:51;99554.41;;;3.33;77.10
56582;BME280;42463;52.214;21.238;2022-12-07T03:40:26;99550.84;;;3.31;77.36
56582;BME280;42463;52.214;21.238;2022-12-07T03:42:53;99548.65;;;3.32;77.26
56582;BME280;42463;52.214;21.238;2022-12-07T03:45:19;99549.38;;;3.33;77.18
56582;BME280;42463;52.214;21.238;2022-12-07T03:47:52;99546.37;;;3.33;77.35
56582;BME280;42463;52.214;21.238;2022-12-07T03:50:25;99543.48;;;3.35;77.21
56582;BME280;42463;52.214;21.238;2022-12-07T03:52:54;99543.20;;;3.37;77.23
56582;BME280;42463;52.214;21.238;2022-12-07T03:55:24;99542.63;;;3.40;77.28
56582;BME280;42463;52.214;21.238;2022-12-07T03:57:54;99540.91;;;3.41;77.26
56582;BME280;42463;52.214;21.238;2022-12-07T04:00:21;99537.80;;;3.45;77.38
56582;BME280;42463;52.214;21.238;2022-12-07T04:02:46;99533.90;;;3.50;76.93
56582;BME280;42463;52.214;21.238;2022-12-07T04:05:11;99537.09;;;3.51;76.92
56582;BME280;42463;52.214;21.238;2022-12-07T04:07:36;99537.06;;;3.50;76.61
56582;BME280;42463;52.214;21.238;2022-12-07T04:10:02;99535.08;;;3.48;76.73
56582;BME280;42463;52.214;21.238;2022-12-07T04:12:27;99536.02;;;3.45;76.32
56582;BME280;42463;52.214;21.238;2022-12-07T04:14:52;99535.12;;;3.46;76.57
56582;BME280;42463;52.214;21.238;2022-12-07T04:17:17;99540.60;;;3.46;76.50
56582;BME280;42463;52.214;21.238;2022-12-07T04:19:42;99536.84;;;3.44;76.33
56582;BME280;42463;52.214;21.238;2022-12-07T04:22:09;99538.54;;;3.43;76.43
56582;BME280;42463;52.214;21.238;2022-12-07T04:24:35;99537.18;;;3.40;76.60
56582;BME280;42463;52.214;21.238;2022-12-07T04:27:00;99532.08;;;3.42;76.43
56582;BME280;42463;52.214;21.238;2022-12-07T04:29:25;99532.39;;;3.43;76.61
56582;BME280;42463;52.214;21.238;2022-12-07T04:31:50;99531.45;;;3.43;76.17
56582;BME280;42463;52.214;21.238;2022-12-07T04:34:16;99529.04;;;3.44;76.08
56582;BME280;42463;52.214;21.238;2022-12-07T04:36:41;99526.86;;;3.43;75.86
56582;BME280;42463;52.214;21.238;2022-12-07T04:39:09;99527.04;;;3.42;76.04
56582;BME280;42463;52.214;21.238;2022-12-07T04:41:38;99527.21;;;3.42;75.88
56582;BME280;42463;52.214;21.238;2022-12-07T04:44:04;99525.23;;;3.43;75.80
56582;BME280;42463;52.214;21.238;2022-12-07T04:46:31;99527.73;;;3.40;75.42
56582;BME280;42463;52.214;21.238;2022-12-07T04:49:00;99526.98;;;3.36;75.54
56582;BME280;42463;52.214;21.238;2022-12-07T04:51:26;99525.23;;;3.37;75.64
56582;BME280;42463;52.214;21.238;2022-12-07T04:53:52;99527.14;;;3.39;75.65
56582;BME280;42463;52.214;21.238;2022-12-07T04:56:18;99522.84;;;3.43;75.36
56582;BME280;42463;52.214;21.238;2022-12-07T04:58:45;99526.05;;;3.47;75.62
56582;BME280;42463;52.214;21.238;2022-12-07T05:01:10;99525.21;;;3.46;74.95
56582;BME280;42463;52.214;21.238;2022-12-07T05:03:36;99518.91;;;3.45;75.02
56582;BME280;42463;52.214;21.238;2022-12-07T05:06:02;99515.73;;;3.40;75.03
56582;BME280;42463;52.214;21.238;2022-12-07T05:08:27;99510.67;;;3.42;75.27
56582;BME280;42463;52.214;21.238;2022-12-07T05:10:52;99510.05;;;3.44;75.05
56582;BME280;42463;52.214;21.238;2022-12-07T05:13:18;99510.67;;;3.44;74.88
56582;BME280;42463;52.214;21.238;2022-12-07T05:15:43;99509.59;;;3.43;74.73
56582;BME280;42463;52.214;21.238;2022-12-07T05:18:08;99511.13;;;3.45;75.09
56582;BME280;42463;52.214;21.238;2022-12-07T05:20:37;99508.96;;;3.46;74.92
56582;BME280;42463;52.214;21.238;2022-12-07T05:23:04;99506.86;;;3.48;75.08
56582;BME280;42463;52.214;21.238;2022-12-07T05:25:30;99506.96;;;3.50;74.68
56582;BME280;42463;52.214;21.238;2022-12-07T05:27:56;99502.64;;;3.46;74.64
56582;BME280;42463;52.214;21.238;2022-12-07T05:30:21;99502.22;;;3.44;74.52
56582;BME280;42463;52.214;21.238;2022-12-07T05:32:46;99504.80;;;3.43;74.60
56582;BME280;42463;52.214;21.238;2022-12-07T05:35:11;99506.11;;;3.46;74.65
56582;BME280;42463;52.214;21.238;2022-12-07T05:37:36;99506.00;;;3.45;74.61
56582;BME280;42463;52.214;21.238;2022-12-07T05:40:01;99504.75;;;3.43;74.54
56582;BME280;42463;52.214;21.238;2022-12-07T05:42:27;99503.44;;;3.44;74.70
56582;BME280;42463;52.214;21.238;2022-12-07T05:44:52;99504.72;;;3.46;74.50
56582;BME280;42463;52.214;21.238;2022-12-07T05:47:18;99505.15;;;3.42;74.06
56582;BME280;42463;52.214;21.238;2022-12-07T05:49:44;99511.11;;;3.38;74.22
56582;BME280;42463;52.214;21.238;2022-12-07T05:52:09;99512.05;;;3.35;74.35
56582;BME280;42463;52.214;21.238;2022-12-07T05:54:35;99511.62;;;3.34;74.40
56582;BME280;42463;52.214;21.238;2022-12-07T05:57:00;99492.24;;;3.25;74.35
56582;BME280;42463;52.214;21.238;2022-12-07T05:59:28;99513.85;;;3.36;74.25
56582;BME280;42463;52.214;21.238;2022-12-07T06:02:00;99518.96;;;3.34;74.15
56582;BME280;42463;52.214;21.238;2022-12-07T06:04:30;99515.48;;;3.33;74.18
56582;BME280;42463;52.214;21.238;2022-12-07T06:06:56;99515.02;;;3.27;73.86
56582;BME280;42463;52.214;21.238;2022-12-07T06:09:22;99512.14;;;3.24;74.05
56582;BME280;42463;52.214;21.238;2022-12-07T06:11:48;99512.89;;;3.24;74.15
56582;BME280;42463;52.214;21.238;2022-12-07T06:14:31;99511.70;;;3.21;73.98
56582;BME280;42463;52.214;21.238;2022-12-07T06:16:59;99510.42;;;3.17;73.79
56582;BME280;42463;52.214;21.238;2022-12-07T06:19:26;99511.35;;;3.16;73.91
56582;BME280;42463;52.214;21.238;2022-12-07T06:21:53;99511.40;;;3.16;74.12
56582;BME280;42463;52.214;21.238;2022-12-07T06:24:21;99509.49;;;3.19;74.17
56582;BME280;42463;52.214;21.238;2022-12-07T06:26:46;99512.99;;;3.25;74.43
56582;BME280;42463;52.214;21.238;2022-12-07T06:29:14;99501.59;;;3.24;73.80
56582;BME280;42463;52.214;21.238;2022-12-07T06:31:40;99504.41;;;3.23;73.43
56582;BME280;42463;52.214;21.238;2022-12-07T06:34:13;99507.84;;;3.19;73.61
56582;BME280;42463;52.214;21.238;2022-12-07T06:36:41;99510.17;;;3.18;73.55
56582;BME280;42463;52.214;21.238;2022-12-07T06:43:41;99508.01;;;3.19;73.78
56582;BME280;42463;52.214;21.238;2022-12-07T06:46:07;99507.99;;;3.20;73.74
56582;BME280;42463;52.214;21.238;2022-12-07T06:48:34;99506.98;;;3.19;73.47
56582;BME280;42463;52.214;21.238;2022-12-07T06:51:06;99506.47;;;3.17;73.46
56582;BME280;42463;52.214;21.238;2022-12-07T06:53:34;99504.43;;;3.15;73.51
56582;BME280;42463;52.214;21.238;2022-12-07T06:56:02;99506.41;;;3.15;73.58
56582;BME280;42463;52.214;21.238;2022-12-07T06:58:29;99505.19;;;3.17;73.52
56582;BME280;42463;52.214;21.238;2022-12-07T07:00:55;99506.56;;;3.19;73.46
56582;BME280;42463;52.214;21.238;2022-12-07T07:03:26;99504.36;;;3.15;73.17
56582;BME280;42463;52.214;21.238;2022-12-07T07:05:57;99501.98;;;3.09;73.29
56582;BME280;42463;52.214;21.238;2022-12-07T07:08:24;99503.65;;;3.07;73.56
56582;BME280;42463;52.214;21.238;2022-12-07T07:10:51;99502.80;;;3.04;73.52
56582;BME280;42463;52.214;21.238;2022-12-07T07:13:17;99505.02;;;3.00;73.60
56582;BME280;42463;52.214;21.238;2022-12-07T07:15:46;99507.33;;;3.01;73.62
56582;BME280;42463;52.214;21.238;2022-12-07T07:18:12;99504.88;;;2.99;73.82
56582;BME280;42463;52.214;21.238;2022-12-07T07:20:41;99502.39;;;2.98;73.68
56582;BME280;42463;52.214;21.238;2022-12-07T07:23:06;99502.75;;;2.93;73.69
56582;BME280;42463;52.214;21.238;2022-12-07T07:25:33;99502.23;;;2.92;73.77
56582;BME280;42463;52.214;21.238;2022-12-07T07:27:58;99499.38;;;2.85;73.72
56582;BME280;42463;52.214;21.238;2022-12-07T07:30:27;99506.14;;;2.82;74.09
56582;BME280;42463;52.214;21.238;2022-12-07T07:32:55;99508.05;;;2.81;74.28
56582;BME280;42463;52.214;21.238;2022-12-07T07:35:21;99509.46;;;2.86;74.50
56582;BME280;42463;52.214;21.238;2022-12-07T07:37:47;99495.61;;;2.81;74.37
56582;BME280;42463;52.214;21.238;2022-12-07T07:40:14;99508.44;;;2.80;74.11
56582;BME280;42463;52.214;21.238;2022-12-07T07:42:40;99505.17;;;2.74;74.25
56582;BME280;42463;52.214;21.238;2022-12-07T07:45:06;99510.23;;;2.75;74.57
56582;BME280;42463;52.214;21.238;2022-12-07T07:47:32;99511.89;;;2.75;74.31
56582;BME280;42463;52.214;21.238;2022-12-07T07:49:57;99508.61;;;2.73;74.53
56582;BME280;42463;52.214;21.238;2022-12-07T07:52:23;99509.25;;;2.71;74.56
56582;BME280;42463;52.214;21.238;2022-12-07T07:54:49;99508.95;;;2.69;74.66
56582;BME280;42463;52.214;21.238;2022-12-07T07:57:15;99506.89;;;2.73;74.92
56582;BME280;42463;52.214;21.238;2022-12-07T07:59:41;99509.00;;;2.77;74.86
56582;BME280;42463;52.214;21.238;2022-12-07T08:02:07;99508.73;;;2.77;74.40
56582;BME280;42463;52.214;21.238;2022-12-07T08:04:35;99507.08;;;2.77;74.68
56582;BME280;42463;52.214;21.238;2022-12-07T08:07:01;99512.86;;;2.78;74.56
56582;BME280;42463;52.214;21.238;2022-12-07T08:09:28;99505.96;;;2.80;74.84
56582;BME280;42463;52.214;21.238;2022-12-07T08:11:54;99506.98;;;2.81;74.77
56582;BME280;42463;52.214;21.238;2022-12-07T08:14:24;99507.20;;;2.82;74.72
56582;BME280;42463;52.214;21.238;2022-12-07T08:16:51;99512.86;;;2.81;74.43
56582;BME280;42463;52.214;21.238;2022-12-07T08:19:16;99514.77;;;2.77;74.85
56582;BME280;42463;52.214;21.238;2022-12-07T08:21:43;99512.06;;;2.70;74.74
56582;BME280;42463;52.214;21.238;2022-12-07T08:24:08;99514.46;;;2.66;74.96
56582;BME280;42463;52.214;21.238;2022-12-07T08:26:36;99512.61;;;2.63;75.15
56582;BME280;42463;52.214;21.238;2022-12-07T08:29:03;99512.13;;;2.59;75.40
56582;BME280;42463;52.214;21.238;2022-12-07T08:31:32;99513.26;;;2.57;75.52
56582;BME280;42463;52.214;21.238;2022-12-07T08:34:05;99515.16;;;2.60;75.81
56582;BME280;42463;52.214;21.238;2022-12-07T08:36:50;99510.96;;;2.59;75.77
56582;BME280;42463;52.214;21.238;2022-12-07T08:39:18;99519.44;;;2.64;75.75
56582;BME280;42463;52.214;21.238;2022-12-07T08:41:47;99519.52;;;2.67;76.03
56582;BME280;42463;52.214;21.238;2022-12-07T08:44:17;99517.98;;;2.71;75.95
56582;BME280;42463;52.214;21.238;2022-12-07T08:46:47;99517.40;;;2.72;75.97
56582;BME280;42463;52.214;21.238;2022-12-07T08:49:18;99518.27;;;2.72;76.11
56582;BME280;42463;52.214;21.238;2022-12-07T08:51:53;99514.84;;;2.69;75.85
56582;BME280;42463;52.214;21.238;2022-12-07T08:54:23;99517.05;;;2.70;76.17
56582;BME280;42463;52.214;21.238;2022-12-07T08:56:55;99515.90;;;2.73;76.65
56582;BME280;42463;52.214;21.238;2022-12-07T08:59:29;99514.68;;;2.72;76.50
56582;BME280;42463;52.214;21.238;2022-12-07T09:02:12;99513.34;;;2.67;77.01
56582;BME280;42463;52.214;21.238;2022-12-07T09:04:57;99512.42;;;2.68;77.20
56582;BME280;42463;52.214;21.238;2022-12-07T09:08:06;99512.58;;;2.69;77.57
56582;BME280;42463;52.214;21.238;2022-12-07T09:10:57;99512.94;;;2.73;77.71
56582;BME280;42463;52.214;21.238;2022-12-07T09:13:23;99512.09;;;2.75;77.64
56582;BME280;42463;52.214;21.238;2022-12-07T09:15:48;99508.37;;;2.76;77.78
56582;BME280;42463;52.214;21.238;2022-12-07T09:18:13;99507.36;;;2.78;77.89
56582;BME280;42463;52.214;21.238;2022-12-07T09:20:41;99505.63;;;2.81;77.92
56582;BME280;42463;52.214;21.238;2022-12-07T09:23:08;99502.49;;;2.84;78.14
56582;BME280;42463;52.214;21.238;2022-12-07T09:25:34;99498.98;;;2.91;78.05
56582;BME280;42463;52.214;21.238;2022-12-07T09:27:59;99501.48;;;3.00;78.18
56582;BME280;42463;52.214;21.238;2022-12-07T09:30:25;99493.56;;;3.11;77.85
56582;BME280;42463;52.214;21.238;2022-12-07T09:32:51;99493.48;;;3.17;77.87
56582;BME280;42463;52.214;21.238;2022-12-07T09:35:29;99492.76;;;3.22;77.52
56582;BME280;42463;52.214;21.238;2022-12-07T09:37:54;99488.79;;;3.25;77.51
56582;BME280;42463;52.214;21.238;2022-12-07T09:40:22;99490.58;;;3.27;77.42
56582;BME280;42463;52.214;21.238;2022-12-07T09:42:52;99494.11;;;3.27;77.37
56582;BME280;42463;52.214;21.238;2022-12-07T09:45:21;99487.64;;;3.30;77.46
56582;BME280;42463;52.214;21.238;2022-12-07T09:47:49;99490.06;;;3.30;77.47
56582;BME280;42463;52.214;21.238;2022-12-07T09:50:17;99487.84;;;3.31;77.51
56582;BME280;42463;52.214;21.238;2022-12-07T09:52:45;99485.13;;;3.34;77.47
56582;BME280;42463;52.214;21.238;2022-12-07T09:55:14;99483.09;;;3.38;77.46
56582;BME280;42463;52.214;21.238;2022-12-07T09:57:40;99484.83;;;3.46;77.59
56582;BME280;42463;52.214;21.238;2022-12-07T10:00:10;99486.70;;;3.52;77.55
56582;BME280;42463;52.214;21.238;2022-12-07T10:02:41;99485.02;;;3.56;77.00
56582;BME280;42463;52.214;21.238;2022-12-07T10:05:12;99487.46;;;3.62;76.91
56582;BME280;42463;52.214;21.238;2022-12-07T10:07:38;99488.52;;;3.63;76.39
56582;BME280;42463;52.214;21.238;2022-12-07T10:10:06;99485.77;;;3.62;76.43
56582;BME280;42463;52.214;21.238;2022-12-07T10:12:54;99483.73;;;3.63;76.45
56582;BME280;42463;52.214;21.238;2022-12-07T10:15:20;99481.23;;;3.66;76.45
56582;BME280;42463;52.214;21.238;2022-12-07T10:17:50;99480.49;;;3.71;76.32
56582;BME280;42463;52.214;21.238;2022-12-07T10:20:23;99477.50;;;3.74;76.23
56582;BME280;42463;52.214;21.238;2022-12-07T10:23:03;99476.95;;;3.75;76.16
56582;BME280;42463;52.214;21.238;2022-12-07T10:25:31;99465.69;;;3.82;76.31
56582;BME280;42463;52.214;21.238;2022-12-07T10:28:09;99468.66;;;3.91;76.35
56582;BME280;42463;52.214;21.238;2022-12-07T10:30:48;99472.11;;;3.97;75.69
56582;BME280;42463;52.214;21.238;2022-12-07T10:33:32;99471.41;;;4.03;75.75
56582;BME280;42463;52.214;21.238;2022-12-07T10:35:58;99473.05;;;4.09;75.84
56582;BME280;42463;52.214;21.238;2022-12-07T10:38:26;99473.06;;;4.12;75.36
56582;BME280;42463;52.214;21.238;2022-12-07T10:41:05;99473.29;;;4.11;75.04
56582;BME280;42463;52.214;21.238;2022-12-07T10:43:31;99471.27;;;4.07;74.68
56582;BME280;42463;52.214;21.238;2022-12-07T10:46:14;99478.39;;;4.06;74.82
56582;BME280;42463;52.214;21.238;2022-12-07T10:48:54;99473.07;;;4.03;74.58
56582;BME280;42463;52.214;21.238;2022-12-07T10:51:29;99471.55;;;4.00;74.36
56582;BME280;42463;52.214;21.238;2022-12-07T10:54:07;99475.90;;;4.02;74.80
56582;BME280;42463;52.214;21.238;2022-12-07T10:56:48;99477.04;;;4.03;74.78
56582;BME280;42463;52.214;21.238;2022-12-07T10:59:28;99474.84;;;4.01;74.54
56582;BME280;42463;52.214;21.238;2022-12-07T11:02:00;99476.64;;;4.02;74.26
56582;BME280;42463;52.214;21.238;2022-12-07T11:04:35;99475.89;;;4.04;74.51
56582;BME280;42463;52.214;21.238;2022-12-07T11:07:08;99473.84;;;3.99;72.97
56582;BME280;42463;52.214;21.238;2022-12-07T11:09:49;99477.73;;;3.95;73.21
56582;BME280;42463;52.214;21.238;2022-12-07T11:12:24;99475.31;;;3.98;74.02
56582;BME280;42463;52.214;21.238;2022-12-07T11:14:58;99475.73;;;4.02;73.76
56582;BME280;42463;52.214;21.238;2022-12-07T11:17:34;99474.80;;;4.01;73.63
56582;BME280;42463;52.214;21.238;2022-12-07T11:20:11;99475.70;;;4.03;73.55
56582;BME280;42463;52.214;21.238;2022-12-07T11:22:44;99474.94;;;4.03;73.58
56582;BME280;42463;52.214;21.238;2022-12-07T11:25:25;99474.63;;;4.06;73.53
56582;BME280;42463;52.214;21.238;2022-12-07T11:28:06;99467.65;;;4.10;73.06
56582;BME280;42463;52.214;21.238;2022-12-07T11:30:41;99466.75;;;4.14;73.56
56582;BME280;42463;52.214;21.238;2022-12-07T11:33:15;99468.29;;;4.17;73.51
56582;BME280;42463;52.214;21.238;2022-12-07T11:35:53;99465.33;;;4.21;73.05
56582;BME280;42463;52.214;21.238;2022-12-07T11:38:24;99459.27;;;4.18;72.58
56582;BME280;42463;52.214;21.238;2022-12-07T11:40:53;99464.25;;;4.21;72.64
56582;BME280;42463;52.214;21.238;2022-12-07T11:43:34;99466.35;;;4.24;73.10
56582;BME280;42463;52.214;21.238;2022-12-07T11:46:02;99463.30;;;4.21;73.06
56582;BME280;42463;52.214;21.238;2022-12-07T11:48:35;99456.85;;;4.24;73.12
56582;BME280;42463;52.214;21.238;2022-12-07T11:51:03;99459.32;;;4.26;73.37
56582;BME280;42463;52.214;21.238;2022-12-07T11:53:35;99461.73;;;4.32;73.21
56582;BME280;42463;52.214;21.238;2022-12-07T11:56:06;99458.95;;;4.34;72.89
56582;BME280;42463;52.214;21.238;2022-12-07T11:58:44;99455.84;;;4.40;73.02
56582;BME280;42463;52.214;21.238;2022-12-07T12:01:18;99453.27;;;4.45;73.06
56582;BME280;42463;52.214;21.238;2022-12-07T12:03:47;99454.13;;;4.50;73.20
56582;BME280;42463;52.214;21.238;2022-12-07T12:06:13;99453.86;;;4.51;72.41
56582;BME280;42463;52.214;21.238;2022-12-07T12:08:42;99453.07;;;4.49;72.38
56582;BME280;42463;52.214;21.238;2022-12-07T12:11:19;99454.64;;;4.49;72.28
56582;BME280;42463;52.214;21.238;2022-12-07T12:14:18;99455.27;;;4.48;72.26
56582;BME280;42463;52.214;21.238;2022-12-07T12:20:02;99445.86;;;4.48;72.40
56582;BME280;42463;52.214;21.238;2022-12-07T12:22:35;99438.33;;;4.53;72.18
56582;BME280;42463;52.214;21.238;2022-12-07T12:25:06;99434.97;;;4.52;71.34
56582;BME280;42463;52.214;21.238;2022-12-07T12:27:33;99436.59;;;4.47;71.22
56582;BME280;42463;52.214;21.238;2022-12-07T12:30:03;99433.45;;;4.48;71.91
56582;BME280;42463;52.214;21.238;2022-12-07T12:32:38;99432.08;;;4.55;71.77
56582;BME280;42463;52.214;21.238;2022-12-07T12:35:26;99431.81;;;4.58;71.70
56582;BME280;42463;52.214;21.238;2022-12-07T12:37:53;99429.88;;;4.58;72.32
56582;BME280;42463;52.214;21.238;2022-12-07T12:40:42;99430.30;;;4.57;72.25
56582;BME280;42463;52.214;21.238;2022-12-07T12:43:43;99433.67;;;4.54;72.25
56582;BME280;42463;52.214;21.238;2022-12-07T12:49:37;99432.63;;;4.37;72.39
56582;BME280;42463;52.214;21.238;2022-12-07T12:55:16;99432.58;;;4.16;72.80
56582;BME280;42463;52.214;21.238;2022-12-07T12:57:44;99433.20;;;4.09;73.38
56582;BME280;42463;52.214;21.238;2022-12-07T13:00:17;99430.39;;;4.07;73.69
56582;BME280;42463;52.214;21.238;2022-12-07T13:02:49;99430.68;;;4.16;73.90
56582;BME280;42463;52.214;21.238;2022-12-07T13:05:21;99431.38;;;4.13;73.26
56582;BME280;42463;52.214;21.238;2022-12-07T13:07:55;99432.34;;;4.11;73.38
56582;BME280;42463;52.214;21.238;2022-12-07T13:10:29;99425.83;;;4.12;73.78
56582;BME280;42463;52.214;21.238;2022-12-07T13:12:58;99422.52;;;4.20;73.71
56582;BME280;42463;52.214;21.238;2022-12-07T13:15:35;99422.20;;;4.23;73.64
56582;BME280;42463;52.214;21.238;2022-12-07T13:18:03;99425.64;;;4.21;73.31
56582;BME280;42463;52.214;21.238;2022-12-07T13:20:59;99423.27;;;4.20;73.29
56582;BME280;42463;52.214;21.238;2022-12-07T13:23:51;99420.98;;;4.16;72.96
56582;BME280;42463;52.214;21.238;2022-12-07T13:26:21;99421.92;;;4.11;73.42
56582;BME280;42463;52.214;21.238;2022-12-07T13:28:49;99422.09;;;4.11;73.39
56582;BME280;42463;52.214;21.238;2022-12-07T13:31:32;99420.80;;;4.13;73.69